createdAt,value
2018-03-06T00:01:14.262Z,6.9
2018-03-06T00:11:13.862Z,6.8
2018-03-06T00:21:12.846Z,6.8
2018-03-06T00:31:11.978Z,6.6
2018-03-06T00:41:12.119Z,6.6
2018-03-06T00:51:10.323Z,6.5
2018-03-06T01:01:11.121Z,6.6
2018-03-06T01:11:08.560Z,6.8
2018-03-06T01:21:07.718Z,6.9
2018-03-06T01:31:07.366Z,6.9
2018-03-06T01:41:06.247Z,6.9
2018-03-06T01:51:05.787Z,6.9
2018-03-06T02:01:04.653Z,7.1
2018-03-06T02:11:04.053Z,7.4
2018-03-06T02:21:03.257Z,7.8
2018-03-06T02:31:03.451Z,7.9
2018-03-06T02:41:01.617Z,7.8
2018-03-06T02:51:00.529Z,7.8
2018-03-06T03:01:00.252Z,7.8
2018-03-06T03:11:01.623Z,7.8
2018-03-06T03:20:58.085Z,7.8
2018-03-06T03:30:57.548Z,7.7
2018-03-06T03:40:57.749Z,7.8
2018-03-06T03:50:58.238Z,7.9
2018-03-06T04:00:55.060Z,7.8
2018-03-06T04:10:54.360Z,7.8
2018-03-06T04:20:53.739Z,7.8
2018-03-06T04:30:53.028Z,7.8
2018-03-06T04:40:52.402Z,7.9
2018-03-06T04:50:51.175Z,7.9
2018-03-06T05:00:50.708Z,8.1
2018-03-06T05:10:50.066Z,8.1
2018-03-06T05:20:48.529Z,8.3
2018-03-06T05:30:48.101Z,6.2
2018-03-06T05:40:47.649Z,5.8
2018-03-06T05:50:46.601Z,5.4
2018-03-06T06:00:45.596Z,5.4
2018-03-06T06:10:44.920Z,5.8
2018-03-06T06:20:43.754Z,6
2018-03-06T06:30:43.049Z,6.3
2018-03-06T06:40:42.190Z,6.1
2018-03-06T06:50:41.358Z,6.2
2018-03-06T07:00:41.181Z,6.9
2018-03-06T07:10:40.110Z,8.9
2018-03-06T07:20:39.344Z,9.8
2018-03-06T07:30:39.056Z,14.9
2018-03-06T07:40:37.971Z,15.4
2018-03-06T07:50:36.949Z,13.5
2018-03-06T08:00:35.821Z,12.5
2018-03-06T08:10:35.744Z,11.3
2018-03-06T08:20:34.571Z,10.8
2018-03-06T08:30:33.519Z,10.4
2018-03-06T08:40:32.826Z,10.4
2018-03-06T08:50:32.042Z,10.3
2018-03-06T09:00:31.406Z,11.1
2018-03-06T09:10:30.471Z,13.1
2018-03-06T09:20:29.529Z,16.1
2018-03-06T09:30:28.829Z,19.4
2018-03-06T09:40:28.291Z,18.1
2018-03-06T09:50:27.193Z,19.5
2018-03-06T10:00:26.806Z,20.4
2018-03-06T10:10:25.698Z,20.3
2018-03-06T10:20:25.064Z,19.7
2018-03-06T10:30:24.031Z,20.4
2018-03-06T10:40:23.023Z,19.8
2018-03-06T10:50:22.455Z,19.6
2018-03-06T11:00:21.615Z,19.8
2018-03-06T11:10:20.886Z,17.4
2018-03-06T11:20:20.268Z,16.6
2018-03-06T11:30:19.172Z,15.6
2018-03-06T11:40:18.314Z,15.8
2018-03-06T11:50:17.468Z,15.1
2018-03-06T12:00:17.180Z,14.4
2018-03-06T12:10:16.280Z,13.9
2018-03-06T12:20:15.321Z,13.3
2018-03-06T12:30:14.678Z,12.7
2018-03-06T12:40:13.803Z,11.9
2018-03-06T12:50:13.020Z,12.1
2018-03-06T13:00:12.206Z,11.9
2018-03-06T13:10:11.416Z,11.3
2018-03-06T13:20:10.470Z,11.2
2018-03-06T13:30:09.550Z,11.6
2018-03-06T13:40:08.805Z,12
2018-03-06T13:50:08.271Z,12
2018-03-06T14:00:07.323Z,12.5
2018-03-06T14:10:06.361Z,12.8
2018-03-06T14:20:05.510Z,13
2018-03-06T14:30:04.844Z,12.8
2018-03-06T14:40:04.541Z,12.7
2018-03-06T14:50:03.246Z,12.9
2018-03-06T15:00:02.390Z,12.9
2018-03-06T15:10:02.212Z,12.8
2018-03-06T15:20:01.055Z,12.4
2018-03-06T15:29:59.886Z,12.4
2018-03-06T15:39:59.211Z,12.4
2018-03-06T15:49:58.749Z,12.1
2018-03-06T15:59:58.052Z,12
2018-03-06T16:09:57.052Z,11.9
2018-03-06T16:19:55.973Z,11.9
2018-03-06T16:29:55.260Z,11.6
2018-03-06T16:39:54.673Z,12.2
2018-03-06T16:49:53.547Z,12.5
2018-03-06T16:59:52.748Z,12.7
2018-03-06T17:09:52.215Z,12.7
2018-03-06T17:19:51.273Z,12.7
2018-03-06T17:29:50.413Z,12.6
2018-03-06T17:39:49.653Z,12.5
2018-03-06T17:49:49.214Z,12.4
2018-03-06T17:59:48.141Z,12.3
2018-03-06T18:09:47.090Z,12.3
2018-03-06T18:19:46.980Z,12.3
2018-03-06T18:29:46.206Z,12.3
2018-03-06T18:39:44.753Z,12.1
2018-03-06T18:49:44.666Z,11.9
2018-03-06T18:59:43.395Z,11.6
2018-03-06T19:09:42.457Z,11.4
2018-03-06T19:19:41.746Z,11.4
2018-03-06T19:29:41.400Z,11.4
2018-03-06T19:39:40.172Z,11.3
2018-03-06T19:49:39.663Z,11.2
2018-03-06T19:59:39.076Z,11.2
2018-03-06T20:09:38.248Z,11
2018-03-06T20:19:36.862Z,10.8
2018-03-06T20:29:36.409Z,10.5
2018-03-06T20:39:35.585Z,10.4
2018-03-06T20:49:35.076Z,10.2
2018-03-06T20:59:34.589Z,10.1
2018-03-06T21:09:33.037Z,10
2018-03-06T21:19:32.724Z,10
2018-03-06T21:29:31.279Z,10.1
2018-03-06T21:39:31.143Z,10.2
2018-03-06T21:49:29.940Z,10.3
2018-03-06T21:59:29.229Z,10.4
2018-03-06T22:09:28.433Z,10.6
2018-03-06T22:19:27.865Z,10.6
2018-03-06T22:29:26.980Z,10.6
2018-03-06T22:39:26.018Z,10.6
2018-03-06T22:49:24.988Z,10.8
2018-03-06T22:59:24.248Z,10.9
2018-03-06T23:09:23.523Z,10.8
2018-03-06T23:19:22.573Z,10.4
2018-03-06T23:29:21.870Z,10.2
2018-03-06T23:39:21.315Z,10.2
2018-03-06T23:49:20.211Z,10.1
2018-03-06T23:59:19.357Z,10.1
